createdAt,value
2019-02-20T00:00:29.890Z,6.30
2019-02-20T00:02:59.940Z,7.43
2019-02-20T00:05:28.599Z,6.17
2019-02-20T00:07:57.336Z,5.83
2019-02-20T00:10:26.008Z,6.00
2019-02-20T00:12:56.526Z,7.10
2019-02-20T00:15:26.852Z,5.97
2019-02-20T00:17:55.587Z,5.87
2019-02-20T00:20:24.295Z,5.97
2019-02-20T00:22:52.982Z,6.83
2019-02-20T00:25:21.680Z,6.10
2019-02-20T00:27:50.364Z,6.33
2019-02-20T00:30:19.207Z,5.63
2019-02-20T00:32:47.899Z,5.33
2019-02-20T00:35:16.652Z,6.50
2019-02-20T00:37:45.357Z,6.10
2019-02-20T00:40:14.026Z,5.97
2019-02-20T00:42:42.706Z,5.80
2019-02-20T00:45:30.840Z,5.77
2019-02-20T00:48:03.901Z,5.70
2019-02-20T00:50:34.157Z,5.97
2019-02-20T00:53:07.013Z,5.20
2019-02-20T00:55:35.686Z,5.97
2019-02-20T00:58:04.482Z,6.37
2019-02-20T01:00:33.291Z,6.50
2019-02-20T01:03:01.988Z,6.20
2019-02-20T01:05:49.937Z,5.70
2019-02-20T01:08:18.620Z,6.30
2019-02-20T01:10:47.299Z,6.80
2019-02-20T01:13:16.002Z,6.07
2019-02-20T01:15:44.670Z,7.00
2019-02-20T01:18:13.459Z,6.67
2019-02-20T01:20:42.151Z,6.20
2019-02-20T01:23:10.846Z,5.70
2019-02-20T01:25:39.521Z,7.10
2019-02-20T01:28:09.321Z,6.87
2019-02-20T01:30:37.964Z,6.80
2019-02-20T01:33:06.723Z,6.27
2019-02-20T01:35:35.633Z,6.47
2019-02-20T01:38:04.370Z,6.40
2019-02-20T01:40:33.068Z,6.40
2019-02-20T01:43:01.769Z,7.00
2019-02-20T01:45:30.455Z,7.43
2019-02-20T01:47:59.133Z,6.13
2019-02-20T01:50:27.969Z,6.77
2019-02-20T01:52:56.626Z,6.00
2019-02-20T01:55:25.337Z,6.50
2019-02-20T01:57:54.026Z,6.37
2019-02-20T02:00:22.843Z,5.27
2019-02-20T02:02:52.485Z,6.53
2019-02-20T02:05:21.421Z,6.27
2019-02-20T02:07:50.090Z,6.83
2019-02-20T02:10:18.776Z,6.20
2019-02-20T02:12:47.487Z,6.67
2019-02-20T02:15:20.597Z,5.97
2019-02-20T02:17:46.569Z,6.17
2019-02-20T02:20:15.573Z,6.20
2019-02-20T02:22:44.251Z,6.40
2019-02-20T02:25:13.289Z,6.73
2019-02-20T02:27:42.000Z,6.13
2019-02-20T02:30:13.413Z,6.60
2019-02-20T02:32:42.070Z,6.90
2019-02-20T02:35:10.783Z,6.80
2019-02-20T02:37:39.472Z,6.63
2019-02-20T02:40:08.955Z,7.50
2019-02-20T02:42:37.666Z,7.23
2019-02-20T02:45:06.930Z,6.70
2019-02-20T02:47:36.664Z,7.07
2019-02-20T02:50:07.368Z,6.17
2019-02-20T02:52:36.067Z,6.83
2019-02-20T02:55:05.565Z,7.53
2019-02-20T02:57:34.236Z,6.60
2019-02-20T03:00:03.136Z,7.53
2019-02-20T03:02:31.827Z,7.93
2019-02-20T03:05:00.537Z,7.90
2019-02-20T03:07:29.201Z,7.50
2019-02-20T03:09:57.923Z,7.47
2019-02-20T03:12:26.587Z,7.27
2019-02-20T03:14:55.298Z,7.77
2019-02-20T03:17:23.977Z,7.43
2019-02-20T03:19:52.951Z,7.63
2019-02-20T03:22:21.632Z,7.10
2019-02-20T03:24:50.343Z,7.43
2019-02-20T03:27:19.008Z,7.30
2019-02-20T03:29:47.714Z,6.97
2019-02-20T03:32:16.396Z,7.23
2019-02-20T03:34:45.092Z,7.63
2019-02-20T03:37:13.959Z,7.60
2019-02-20T03:39:42.666Z,6.67
2019-02-20T03:42:11.334Z,7.03
2019-02-20T03:44:40.053Z,7.70
2019-02-20T03:47:08.753Z,6.70
2019-02-20T03:49:37.514Z,6.87
2019-02-20T03:52:06.191Z,6.83
2019-02-20T03:54:34.946Z,6.73
2019-02-20T03:57:03.605Z,8.17
2019-02-20T03:59:32.490Z,6.57
2019-02-20T04:02:01.161Z,7.37
2019-02-20T04:04:30.056Z,8.07
2019-02-20T04:06:58.742Z,7.47
2019-02-20T04:09:27.435Z,6.60
2019-02-20T04:11:56.107Z,8.97
2019-02-20T04:14:24.816Z,7.03
2019-02-20T04:16:55.942Z,8.00
2019-02-20T04:19:24.650Z,7.43
2019-02-20T04:21:53.540Z,7.63
2019-02-20T04:24:22.243Z,8.73
2019-02-20T04:26:50.936Z,7.30
2019-02-20T04:29:19.624Z,8.17
2019-02-20T04:31:48.304Z,8.03
2019-02-20T04:34:17.013Z,8.90
2019-02-20T04:36:45.683Z,7.63
2019-02-20T04:39:14.394Z,8.03
2019-02-20T04:41:43.065Z,7.53
2019-02-20T04:44:11.780Z,7.87
2019-02-20T04:46:40.442Z,8.10
2019-02-20T04:49:09.352Z,7.73
2019-02-20T04:51:38.024Z,8.30
2019-02-20T04:54:13.301Z,7.93
2019-02-20T04:56:37.140Z,7.40
2019-02-20T04:59:05.927Z,8.00
2019-02-20T05:01:34.625Z,8.57
2019-02-20T05:04:03.373Z,8.17
2019-02-20T05:06:32.122Z,7.53
2019-02-20T05:09:00.855Z,7.20
2019-02-20T05:11:29.580Z,6.90
2019-02-20T05:13:58.297Z,7.63
2019-02-20T05:16:26.976Z,7.87
2019-02-20T05:18:55.725Z,8.23
2019-02-20T05:21:24.399Z,6.73
2019-02-20T05:23:53.827Z,7.00
2019-02-20T05:26:22.491Z,8.27
2019-02-20T05:28:51.195Z,7.00
2019-02-20T05:31:19.866Z,6.60
2019-02-20T05:33:48.559Z,7.70
2019-02-20T05:36:17.248Z,8.20
2019-02-20T05:38:45.989Z,7.00
2019-02-20T05:41:14.642Z,7.30
2019-02-20T05:43:43.369Z,7.00
2019-02-20T05:46:12.047Z,7.30
2019-02-20T05:48:40.737Z,6.47
2019-02-20T05:51:09.399Z,6.57
2019-02-20T05:53:38.113Z,7.07
2019-02-20T05:56:06.783Z,6.70
2019-02-20T05:58:35.701Z,7.70
2019-02-20T06:01:04.464Z,7.83
2019-02-20T06:03:34.935Z,9.23
2019-02-20T06:06:03.714Z,6.30
2019-02-20T06:08:32.398Z,7.20
2019-02-20T06:11:01.158Z,8.10
2019-02-20T06:13:29.848Z,8.07
2019-02-20T06:16:00.007Z,6.70
2019-02-20T06:18:28.676Z,7.40
2019-02-20T06:20:57.502Z,7.00
2019-02-20T06:23:26.186Z,7.13
2019-02-20T06:25:54.894Z,6.73
2019-02-20T06:28:25.144Z,6.90
2019-02-20T06:30:54.264Z,8.00
2019-02-20T06:33:24.077Z,7.40
2019-02-20T06:35:52.829Z,7.17
2019-02-20T06:38:21.494Z,6.87
2019-02-20T06:40:50.190Z,6.57
2019-02-20T06:43:19.162Z,6.90
2019-02-20T06:45:47.941Z,6.60
2019-02-20T06:48:16.618Z,6.37
2019-02-20T06:50:45.318Z,7.50
2019-02-20T06:53:13.999Z,8.03
2019-02-20T06:55:42.820Z,7.73
2019-02-20T06:58:11.525Z,6.40
2019-02-20T07:00:40.200Z,6.23
2019-02-20T07:03:08.896Z,7.17
2019-02-20T07:05:39.053Z,6.30
2019-02-20T07:08:25.772Z,7.30
2019-02-20T07:11:21.858Z,5.70
2019-02-20T07:13:59.404Z,6.83
2019-02-20T07:16:40.088Z,7.40
2019-02-20T07:19:11.732Z,8.27
2019-02-20T07:21:55.364Z,7.57
2019-02-20T07:24:42.051Z,7.23
2019-02-20T07:27:22.729Z,7.17
2019-02-20T07:30:02.091Z,6.70
2019-02-20T07:32:31.165Z,6.10
2019-02-20T07:34:59.895Z,8.30
2019-02-20T07:37:28.652Z,6.70
2019-02-20T07:39:57.655Z,8.70
2019-02-20T07:42:26.347Z,7.63
2019-02-20T07:44:55.114Z,7.07
2019-02-20T07:47:23.800Z,8.73
2019-02-20T07:49:52.507Z,6.40
2019-02-20T07:52:21.185Z,6.70
2019-02-20T07:54:49.904Z,6.20
2019-02-20T07:57:18.572Z,7.20
2019-02-20T07:59:47.299Z,7.13
2019-02-20T08:02:15.994Z,7.87
2019-02-20T08:04:44.889Z,7.87
2019-02-20T08:07:14.206Z,8.60
2019-02-20T08:09:42.899Z,6.87
2019-02-20T08:12:11.579Z,7.60
2019-02-20T08:14:40.292Z,7.40
2019-02-20T08:17:08.998Z,9.30
2019-02-20T08:19:37.656Z,7.60
2019-02-20T08:22:06.363Z,7.70
2019-02-20T08:24:36.729Z,8.27
2019-02-20T08:27:05.442Z,8.77
2019-02-20T08:29:36.943Z,7.83
2019-02-20T08:32:07.211Z,8.30
2019-02-20T08:34:35.987Z,33.33
2019-02-20T08:37:04.772Z,8.80
2019-02-20T08:39:33.448Z,8.97
2019-02-20T08:42:02.158Z,8.73
2019-02-20T08:44:30.917Z,8.63
2019-02-20T08:46:59.630Z,8.37
2019-02-20T08:49:28.306Z,9.50
2019-02-20T08:51:57.106Z,8.37
2019-02-20T08:54:25.809Z,10.80
2019-02-20T08:56:54.591Z,9.10
2019-02-20T08:59:23.273Z,9.53
2019-02-20T09:01:51.984Z,10.70
2019-02-20T09:04:20.718Z,8.90
2019-02-20T09:06:49.415Z,9.90
2019-02-20T09:09:18.092Z,9.97
2019-02-20T09:11:46.800Z,11.57
2019-02-20T09:14:15.525Z,11.40
2019-02-20T09:16:45.222Z,11.60
2019-02-20T09:19:13.910Z,10.97
2019-02-20T09:21:42.645Z,11.93
2019-02-20T09:24:11.657Z,10.97
2019-02-20T09:26:40.346Z,11.70
2019-02-20T09:29:09.034Z,11.43
2019-02-20T09:31:37.745Z,11.90
2019-02-20T09:34:06.440Z,12.70
2019-02-20T09:36:35.170Z,12.27
2019-02-20T09:39:29.695Z,12.00
2019-02-20T09:41:58.660Z,13.17
2019-02-20T09:44:28.278Z,12.77
2019-02-20T09:46:56.996Z,13.27
2019-02-20T09:49:25.673Z,13.20
2019-02-20T09:51:54.398Z,14.70
2019-02-20T09:54:23.220Z,14.77
2019-02-20T09:56:53.533Z,15.03
2019-02-20T09:59:22.212Z,12.13
2019-02-20T10:01:50.943Z,14.23
2019-02-20T10:04:19.623Z,13.43
2019-02-20T10:06:48.326Z,13.20
2019-02-20T10:09:17.003Z,14.90
2019-02-20T10:11:45.708Z,13.97
2019-02-20T10:14:14.399Z,14.03
2019-02-20T10:16:43.129Z,13.47
2019-02-20T10:19:11.907Z,12.73
2019-02-20T10:21:40.751Z,13.17
2019-02-20T10:24:09.435Z,13.60
2019-02-20T10:26:38.114Z,12.27
2019-02-20T10:29:06.821Z,11.77
2019-02-20T10:31:35.506Z,12.60
2019-02-20T10:34:04.470Z,11.50
2019-02-20T10:36:33.165Z,11.10
2019-02-20T10:39:01.867Z,12.37
2019-02-20T10:41:30.550Z,11.80
2019-02-20T10:43:59.257Z,11.40
2019-02-20T10:46:27.975Z,11.27
2019-02-20T10:48:56.685Z,11.13
2019-02-20T10:51:25.381Z,10.10
2019-02-20T10:53:54.121Z,9.80
2019-02-20T10:56:42.099Z,9.83
2019-02-20T10:59:10.771Z,9.63
2019-02-20T11:01:39.772Z,10.90
2019-02-20T11:04:08.448Z,11.40
2019-02-20T11:06:37.166Z,11.50
2019-02-20T11:09:06.154Z,12.00
2019-02-20T11:11:35.032Z,11.63
2019-02-20T11:14:03.765Z,11.93
2019-02-20T11:16:33.088Z,12.63
2019-02-20T11:19:01.864Z,12.70
2019-02-20T11:21:30.696Z,14.40
2019-02-20T11:24:01.181Z,14.90
2019-02-20T11:26:29.853Z,15.33
2019-02-20T11:28:58.553Z,14.13
2019-02-20T11:31:27.275Z,15.00
2019-02-20T11:33:55.947Z,14.97
2019-02-20T11:36:24.778Z,15.77
2019-02-20T11:38:53.916Z,18.40
2019-02-20T11:41:22.607Z,15.10
2019-02-20T11:43:51.463Z,16.23
2019-02-20T11:46:20.243Z,13.50
2019-02-20T11:48:48.959Z,15.10
2019-02-20T11:51:17.644Z,16.93
2019-02-20T11:53:46.340Z,15.40
2019-02-20T11:56:15.098Z,15.30
2019-02-20T11:58:43.823Z,15.33
2019-02-20T12:01:12.546Z,13.50
2019-02-20T12:03:41.253Z,11.80
2019-02-20T12:06:09.966Z,12.67
2019-02-20T12:08:38.646Z,12.80
2019-02-20T12:11:07.420Z,14.07
2019-02-20T12:13:36.201Z,12.50
2019-02-20T12:16:04.924Z,10.33
2019-02-20T12:18:33.686Z,12.60
2019-02-20T12:21:02.392Z,13.50
2019-02-20T12:23:36.658Z,13.27
2019-02-20T12:26:03.123Z,9.87
2019-02-20T12:28:31.809Z,11.27
2019-02-20T12:31:00.550Z,10.93
2019-02-20T12:33:29.289Z,11.30
2019-02-20T12:35:58.015Z,10.57
2019-02-20T12:38:26.725Z,12.10
2019-02-20T12:40:55.678Z,10.70
2019-02-20T12:43:25.868Z,11.10
2019-02-20T12:45:54.599Z,10.10
2019-02-20T12:48:23.362Z,10.30
2019-02-20T12:50:52.086Z,10.63
2019-02-20T12:53:20.766Z,10.97
2019-02-20T12:55:49.507Z,10.83
2019-02-20T12:58:18.227Z,10.83
2019-02-20T13:00:47.043Z,10.23
2019-02-20T13:03:15.766Z,11.33
2019-02-20T13:05:44.458Z,10.73
2019-02-20T13:08:13.463Z,11.50
2019-02-20T13:10:42.167Z,11.87
2019-02-20T13:13:10.875Z,13.40
2019-02-20T13:15:40.084Z,11.57
2019-02-20T13:18:08.827Z,10.27
2019-02-20T13:20:37.569Z,10.67
2019-02-20T13:23:06.293Z,10.93
2019-02-20T13:25:35.006Z,10.20
2019-02-20T13:28:03.684Z,7.20
2019-02-20T13:30:32.568Z,6.37
2019-02-20T13:33:02.554Z,5.13
2019-02-20T13:35:31.566Z,6.40
2019-02-20T13:38:00.849Z,4.43
2019-02-20T13:40:29.592Z,6.00
2019-02-20T13:42:58.613Z,5.17
2019-02-20T13:45:27.374Z,5.00
2019-02-20T13:47:56.086Z,5.87
2019-02-20T13:50:25.157Z,4.27
2019-02-20T13:52:53.828Z,5.10
2019-02-20T13:55:22.548Z,4.57
2019-02-20T13:57:51.313Z,4.60
2019-02-20T14:00:20.042Z,4.07
2019-02-20T14:02:48.769Z,4.20
2019-02-20T14:05:17.570Z,4.17
2019-02-20T14:07:49.304Z,4.00
2019-02-20T14:10:19.572Z,4.30
2019-02-20T14:12:48.462Z,4.10
2019-02-20T14:15:18.841Z,3.23
2019-02-20T14:17:48.260Z,3.27
2019-02-20T14:20:17.023Z,3.13
2019-02-20T14:22:46.000Z,3.03
2019-02-20T14:25:14.850Z,3.00
2019-02-20T14:27:43.660Z,3.20
2019-02-20T14:30:12.883Z,2.30
2019-02-20T14:32:41.899Z,3.17
2019-02-20T14:35:12.406Z,3.10
2019-02-20T14:37:41.494Z,4.30
2019-02-20T14:40:10.272Z,3.40
2019-02-20T14:42:38.966Z,3.40
2019-02-20T14:45:12.747Z,4.70
2019-02-20T14:47:41.537Z,3.90
2019-02-20T14:50:11.794Z,3.73
2019-02-20T14:52:40.771Z,4.57
2019-02-20T14:55:10.820Z,3.90
2019-02-20T14:57:39.527Z,3.80
2019-02-20T15:00:15.777Z,3.90
2019-02-20T15:02:44.563Z,3.40
2019-02-20T15:05:13.516Z,4.20
2019-02-20T15:07:42.336Z,3.67
2019-02-20T15:10:11.335Z,4.00
2019-02-20T15:12:40.008Z,3.80
2019-02-20T15:15:11.352Z,4.77
2019-02-20T15:17:40.111Z,4.80
2019-02-20T15:20:11.562Z,4.90
2019-02-20T15:22:40.441Z,5.23
2019-02-20T15:25:09.980Z,4.67
2019-02-20T15:27:38.820Z,5.27
2019-02-20T15:30:12.278Z,6.57
2019-02-20T15:32:40.995Z,5.60
2019-02-20T15:35:10.113Z,4.50
2019-02-20T15:37:38.874Z,5.10
2019-02-20T15:40:09.578Z,5.03
2019-02-20T15:42:38.321Z,4.97
2019-02-20T15:45:09.405Z,6.47
2019-02-20T15:47:38.128Z,5.57
2019-02-20T15:50:16.191Z,5.37
2019-02-20T15:52:45.081Z,5.40
2019-02-20T15:55:14.373Z,6.20
2019-02-20T15:57:46.548Z,5.90
2019-02-20T16:00:18.877Z,5.10
2019-02-20T16:02:47.628Z,6.37
2019-02-20T16:05:16.734Z,5.60
2019-02-20T16:07:45.472Z,7.20
2019-02-20T16:10:14.307Z,5.33
2019-02-20T16:12:43.256Z,7.07
2019-02-20T16:15:14.511Z,6.10
2019-02-20T16:17:44.752Z,7.10
2019-02-20T16:20:13.912Z,6.97
2019-02-20T16:22:42.672Z,5.97
2019-02-20T16:25:17.556Z,5.20
2019-02-20T16:27:47.527Z,5.23
2019-02-20T16:30:16.671Z,6.23
2019-02-20T16:32:45.436Z,5.53
2019-02-20T16:35:14.595Z,5.60
2019-02-20T16:37:43.384Z,5.90
2019-02-20T16:40:14.999Z,4.63
2019-02-20T16:42:43.747Z,6.17
2019-02-20T16:45:18.218Z,6.10
2019-02-20T16:47:46.938Z,5.70
2019-02-20T16:50:16.007Z,5.03
2019-02-20T16:52:44.717Z,5.27
2019-02-20T16:55:19.191Z,6.03
2019-02-20T16:57:44.093Z,5.77
2019-02-20T17:00:15.615Z,6.07
2019-02-20T17:02:44.742Z,5.67
2019-02-20T17:05:15.992Z,5.23
2019-02-20T17:07:44.741Z,6.37
2019-02-20T17:10:14.629Z,5.97
2019-02-20T17:12:44.943Z,6.00
2019-02-20T17:15:15.405Z,6.40
2019-02-20T17:17:44.166Z,5.80
2019-02-20T17:20:18.480Z,5.80
2019-02-20T17:22:47.222Z,5.80
2019-02-20T17:25:16.622Z,5.23
2019-02-20T17:27:45.393Z,6.10
2019-02-20T17:30:17.225Z,6.57
2019-02-20T17:32:46.425Z,6.00
2019-02-20T17:35:17.130Z,5.90
2019-02-20T17:37:46.217Z,5.67
2019-02-20T17:40:16.126Z,7.20
2019-02-20T17:42:44.888Z,6.73
2019-02-20T17:45:18.078Z,6.10
2019-02-20T17:47:47.255Z,7.53
2019-02-20T17:50:24.334Z,6.37
2019-02-20T17:52:53.181Z,6.87
2019-02-20T17:55:21.962Z,6.60
2019-02-20T17:57:50.718Z,7.13
2019-02-20T18:00:27.336Z,7.80
2019-02-20T18:02:56.065Z,7.30
2019-02-20T18:05:24.759Z,6.37
2019-02-20T18:07:53.490Z,7.90
2019-02-20T18:10:22.316Z,7.93
2019-02-20T18:12:50.988Z,7.50
2019-02-20T18:15:19.672Z,8.00
2019-02-20T18:17:48.384Z,8.43
2019-02-20T18:20:17.063Z,7.80
2019-02-20T18:22:45.801Z,8.57
2019-02-20T18:25:14.690Z,8.80
2019-02-20T18:27:43.418Z,9.17
2019-02-20T18:30:16.015Z,7.50
2019-02-20T18:32:44.709Z,9.23
2019-02-20T18:35:15.126Z,8.20
2019-02-20T18:37:43.819Z,7.67
2019-02-20T18:40:15.272Z,8.50
2019-02-20T18:42:44.026Z,7.77
2019-02-20T18:45:14.525Z,7.80
2019-02-20T18:47:43.435Z,10.23
2019-02-20T18:50:13.738Z,8.60
2019-02-20T18:52:42.488Z,8.70
2019-02-20T18:55:12.764Z,8.43
2019-02-20T18:57:41.789Z,8.83
2019-02-20T19:00:15.926Z,9.27
2019-02-20T19:02:44.665Z,7.30
2019-02-20T19:05:14.184Z,12.93
2019-02-20T19:07:42.933Z,10.40
2019-02-20T19:10:17.194Z,8.33
2019-02-20T19:13:12.645Z,8.10
2019-02-20T19:15:59.192Z,9.07
2019-02-20T19:18:47.600Z,7.30
2019-02-20T19:21:34.482Z,6.97
2019-02-20T19:24:29.663Z,7.83
2019-02-20T19:27:10.526Z,8.00
2019-02-20T19:29:48.416Z,7.77
2019-02-20T19:32:36.843Z,8.73
2019-02-20T19:35:08.499Z,7.87
2019-02-20T19:37:40.079Z,7.23
2019-02-20T19:40:15.933Z,8.83
2019-02-20T19:43:06.102Z,7.93
2019-02-20T19:45:57.667Z,8.53
2019-02-20T19:48:33.951Z,8.90
2019-02-20T19:51:22.475Z,9.57
2019-02-20T19:53:54.094Z,7.60
2019-02-20T19:56:54.621Z,8.97
2019-02-20T19:59:47.608Z,9.20
2019-02-20T20:02:38.990Z,9.47
2019-02-20T20:05:25.839Z,8.53
2019-02-20T20:08:00.501Z,9.33
2019-02-20T20:10:44.251Z,9.53
2019-02-20T20:13:37.133Z,11.13
2019-02-20T20:16:17.766Z,8.90
2019-02-20T20:19:23.103Z,9.83
2019-02-20T20:22:06.975Z,10.23
2019-02-20T20:24:53.863Z,10.37
2019-02-20T20:27:31.384Z,10.20
2019-02-20T20:30:18.223Z,9.63
2019-02-20T20:33:10.525Z,10.60
2019-02-20T20:36:03.404Z,10.17
2019-02-20T20:38:47.144Z,11.17
2019-02-20T20:41:47.777Z,12.67
2019-02-20T20:44:34.114Z,11.77
2019-02-20T20:47:08.865Z,11.00
2019-02-20T20:50:03.450Z,11.27
2019-02-20T20:52:47.090Z,10.10
2019-02-20T20:55:52.172Z,11.50
2019-02-20T20:58:38.995Z,11.73
2019-02-20T21:01:27.016Z,10.70
2019-02-20T21:04:21.484Z,11.40
2019-02-20T21:06:53.117Z,11.80
2019-02-20T21:09:24.841Z,11.33
2019-02-20T21:11:56.507Z,12.20
2019-02-20T21:14:31.085Z,11.40
2019-02-20T21:17:09.021Z,12.73
2019-02-20T21:19:57.406Z,15.37
2019-02-20T21:22:38.177Z,11.90
2019-02-20T21:25:15.645Z,12.77
2019-02-20T21:28:11.533Z,12.70
2019-02-20T21:30:55.275Z,13.50
2019-02-20T21:33:33.088Z,13.27
2019-02-20T21:36:16.826Z,13.23
2019-02-20T21:39:09.957Z,13.63
2019-02-20T21:41:52.183Z,13.47
2019-02-20T21:44:42.343Z,12.17
2019-02-20T21:47:17.192Z,12.73
2019-02-20T21:50:03.500Z,13.00
2019-02-20T21:52:56.842Z,12.90
2019-02-20T21:55:31.198Z,12.60
2019-02-20T21:58:15.023Z,12.60
2019-02-20T22:01:06.837Z,12.70
2019-02-20T22:03:54.798Z,12.63
2019-02-20T22:06:29.435Z,12.60
2019-02-20T22:09:10.208Z,11.47
2019-02-20T22:12:02.752Z,12.47
2019-02-20T22:14:46.597Z,12.10
2019-02-20T22:17:36.985Z,12.70
2019-02-20T22:20:29.971Z,12.70
2019-02-20T22:23:27.592Z,13.07
2019-02-20T22:26:02.278Z,10.47
2019-02-20T22:28:38.019Z,10.77
2019-02-20T22:31:25.235Z,11.60
2019-02-20T22:34:25.405Z,12.43
2019-02-20T22:37:16.844Z,12.57
2019-02-20T22:40:15.892Z,13.17
2019-02-20T22:43:08.298Z,11.47
2019-02-20T22:45:54.983Z,10.57
2019-02-20T22:48:46.438Z,10.60
2019-02-20T22:51:37.899Z,12.17
2019-02-20T22:54:18.643Z,11.80
2019-02-20T22:57:08.558Z,10.70
2019-02-20T22:59:49.071Z,11.93
2019-02-20T23:02:38.865Z,11.23
2019-02-20T23:05:47.310Z,12.30
2019-02-20T23:08:21.622Z,11.80
2019-02-20T23:10:53.240Z,12.47
2019-02-20T23:13:24.892Z,13.50
2019-02-20T23:15:53.719Z,12.13
2019-02-20T23:18:22.429Z,12.40
2019-02-20T23:20:51.159Z,12.20
2019-02-20T23:23:19.846Z,11.73
2019-02-20T23:25:48.517Z,12.87
2019-02-20T23:28:17.326Z,11.10
2019-02-20T23:30:46.014Z,11.77
2019-02-20T23:33:14.748Z,11.67
2019-02-20T23:35:43.571Z,11.40
2019-02-20T23:38:12.238Z,13.30
2019-02-20T23:40:40.964Z,12.03
2019-02-20T23:43:09.626Z,12.07
2019-02-20T23:45:38.332Z,11.67
2019-02-20T23:48:07.006Z,12.53
2019-02-20T23:50:35.736Z,11.87
2019-02-20T23:53:04.448Z,12.90
2019-02-20T23:55:33.220Z,12.70
2019-02-20T23:58:02.139Z,12.10
